メインページ
METAR-TAF:

METAR-TAF

空港 :

アンカラ-エセンボーア, トルコ

エセンボーア国際空港

緯度: 40-07N, 経度: 032-59E, 海抜: 953m

現時点の気象観測

当レポートは41分前の05:20(UTC)に作成
変向風 3kt
気温 22°C
湿度 65%
気圧 1016 hPa
視程10km以上
1,500メートル以下は雲なし、積乱雲なし

METAR: LTAC 200520Z VRB03KT CAVOK 22/15 Q1016 NOSIG RMK RWY21L 03006KT 350V080 RWY03L 04004KT 360V100 RWY21R 02007KT

時間: 09:01 (06:01 UTC)

予報

当レポートは1時間21分前の04:40(UTC)に作成
予報は20日の 06時(UTC)から 21日の 06時(UTC)まで有効
変向風 2kt
視程10km以上
1,500メートル以下は雲なし、積乱雲なし
20日の 10時(UTC)から 20日の 12時(UTC)まで徐々に
高度4000ftの雲は散在している
20日の 18時(UTC)から 20日の 21時(UTC)まで徐々に
視程10km以上
1,500メートル以下は雲なし、積乱雲なし

TAF: LTAC 200440Z 2006/2106 VRB02KT CAVOK BECMG 2010/2012 SCT040 BECMG 2018/2021 CAVOK

4,000以上の空港の気象観測と天気予報(METAR報とTAF報)

利用可能な観測所は地図上に黄色い丸と赤い丸で示す。

丸の上にカーソルを重ねると観測所名を参照できる。

次にクリックすると気象観測と天気予報を参照できる。

マップの切り替え:黒色「×」印の緑ボタンをクリックして拡大、「-」印の緑ボタンをクリックして縮小、緑色の三角印をクリックして隣りの地図に切り替え


METAR-TAF: